sensor_id;sensor_type;location;lat;lon;timestamp;P1;durP1;ratioP1;P2;durP2;ratioP2
17872;SDS011;36318;42.620;23.338;2022-10-15T00:01:11;5.40;;;4.90;;
17872;SDS011;36318;42.620;23.338;2022-10-15T00:03:40;5.33;;;4.47;;
17872;SDS011;36318;42.620;23.338;2022-10-15T00:06:08;5.50;;;4.83;;
17872;SDS011;36318;42.620;23.338;2022-10-15T00:08:37;5.40;;;4.63;;
17872;SDS011;36318;42.620;23.338;2022-10-15T00:11:05;5.10;;;4.60;;
17872;SDS011;36318;42.620;23.338;2022-10-15T00:13:33;6.00;;;4.63;;
17872;SDS011;36318;42.620;23.338;2022-10-15T00:16:00;7.53;;;4.90;;
17872;SDS011;36318;42.620;23.338;2022-10-15T00:18:28;7.77;;;4.93;;
17872;SDS011;36318;42.620;23.338;2022-10-15T00:20:55;6.73;;;5.27;;
17872;SDS011;36318;42.620;23.338;2022-10-15T00:23:22;4.77;;;4.37;;
17872;SDS011;36318;42.620;23.338;2022-10-15T00:25:49;7.30;;;5.43;;
17872;SDS011;36318;42.620;23.338;2022-10-15T00:28:16;5.63;;;5.13;;
17872;SDS011;36318;42.620;23.338;2022-10-15T00:30:43;6.97;;;4.87;;
17872;SDS011;36318;42.620;23.338;2022-10-15T00:33:09;4.80;;;4.20;;
17872;SDS011;36318;42.620;23.338;2022-10-15T00:35:38;5.30;;;4.63;;
17872;SDS011;36318;42.620;23.338;2022-10-15T00:38:04;6.87;;;4.83;;
17872;SDS011;36318;42.620;23.338;2022-10-15T00:40:31;5.73;;;5.23;;
17872;SDS011;36318;42.620;23.338;2022-10-15T00:42:58;6.20;;;5.13;;
17872;SDS011;36318;42.620;23.338;2022-10-15T00:45:25;8.13;;;6.20;;
17872;SDS011;36318;42.620;23.338;2022-10-15T00:47:52;6.17;;;5.57;;
17872;SDS011;36318;42.620;23.338;2022-10-15T00:50:19;7.60;;;5.50;;
17872;SDS011;36318;42.620;23.338;2022-10-15T00:52:53;6.43;;;5.83;;
17872;SDS011;36318;42.620;23.338;2022-10-15T00:55:27;7.03;;;5.30;;
17872;SDS011;36318;42.620;23.338;2022-10-15T00:57:57;6.03;;;4.80;;
17872;SDS011;36318;42.620;23.338;2022-10-15T01:00:26;12.47;;;5.67;;
17872;SDS011;36318;42.620;23.338;2022-10-15T01:02:54;14.83;;;5.90;;
17872;SDS011;36318;42.620;23.338;2022-10-15T01:05:21;5.93;;;5.17;;
17872;SDS011;36318;42.620;23.338;2022-10-15T01:07:48;6.47;;;5.90;;
17872;SDS011;36318;42.620;23.338;2022-10-15T01:10:16;7.53;;;6.40;;
17872;SDS011;36318;42.620;23.338;2022-10-15T01:12:53;6.43;;;5.73;;
17872;SDS011;36318;42.620;23.338;2022-10-15T01:15:28;5.70;;;5.20;;
17872;SDS011;36318;42.620;23.338;2022-10-15T01:18:07;6.00;;;4.93;;
17872;SDS011;36318;42.620;23.338;2022-10-15T01:23:44;4.63;;;4.13;;
17872;SDS011;36318;42.620;23.338;2022-10-15T01:26:51;5.13;;;4.60;;
17872;SDS011;36318;42.620;23.338;2022-10-15T01:29:51;6.03;;;4.93;;
17872;SDS011;36318;42.620;23.338;2022-10-15T01:32:40;5.60;;;4.50;;
17872;SDS011;36318;42.620;23.338;2022-10-15T01:35:15;5.63;;;5.13;;
17872;SDS011;36318;42.620;23.338;2022-10-15T01:37:54;5.63;;;5.03;;
17872;SDS011;36318;42.620;23.338;2022-10-15T01:40:27;6.20;;;4.90;;
17872;SDS011;36318;42.620;23.338;2022-10-15T01:42:59;5.63;;;5.13;;
17872;SDS011;36318;42.620;23.338;2022-10-15T01:45:31;5.37;;;4.87;;
17872;SDS011;36318;42.620;23.338;2022-10-15T01:48:03;6.03;;;4.80;;
17872;SDS011;36318;42.620;23.338;2022-10-15T01:50:33;4.60;;;4.20;;
17872;SDS011;36318;42.620;23.338;2022-10-15T01:53:03;4.97;;;3.80;;
17872;SDS011;36318;42.620;23.338;2022-10-15T01:55:33;4.83;;;4.13;;
17872;SDS011;36318;42.620;23.338;2022-10-15T01:58:02;4.07;;;3.57;;
17872;SDS011;36318;42.620;23.338;2022-10-15T02:00:31;4.60;;;4.20;;
17872;SDS011;36318;42.620;23.338;2022-10-15T02:02:58;5.90;;;3.70;;
17872;SDS011;36318;42.620;23.338;2022-10-15T02:05:28;4.50;;;3.87;;
17872;SDS011;36318;42.620;23.338;2022-10-15T02:07:57;5.27;;;3.50;;
17872;SDS011;36318;42.620;23.338;2022-10-15T02:10:34;4.40;;;3.53;;
17872;SDS011;36318;42.620;23.338;2022-10-15T02:13:09;6.43;;;4.00;;
17872;SDS011;36318;42.620;23.338;2022-10-15T02:15:45;5.73;;;4.50;;
17872;SDS011;36318;42.620;23.338;2022-10-15T02:18:24;6.23;;;4.93;;
17872;SDS011;36318;42.620;23.338;2022-10-15T02:20:58;5.77;;;4.90;;
17872;SDS011;36318;42.620;23.338;2022-10-15T02:23:31;4.87;;;4.47;;
17872;SDS011;36318;42.620;23.338;2022-10-15T02:26:05;5.80;;;4.77;;
17872;SDS011;36318;42.620;23.338;2022-10-15T02:28:35;5.87;;;3.50;;
17872;SDS011;36318;42.620;23.338;2022-10-15T02:31:05;6.10;;;4.00;;
17872;SDS011;36318;42.620;23.338;2022-10-15T02:33:35;4.90;;;3.80;;
17872;SDS011;36318;42.620;23.338;2022-10-15T02:36:05;4.60;;;4.10;;
17872;SDS011;36318;42.620;23.338;2022-10-15T02:38:33;5.97;;;4.53;;
17872;SDS011;36318;42.620;23.338;2022-10-15T02:41:03;4.40;;;3.93;;
17872;SDS011;36318;42.620;23.338;2022-10-15T02:43:30;5.10;;;3.93;;
17872;SDS011;36318;42.620;23.338;2022-10-15T02:45:57;5.60;;;4.20;;
17872;SDS011;36318;42.620;23.338;2022-10-15T02:48:24;4.50;;;4.07;;
17872;SDS011;36318;42.620;23.338;2022-10-15T02:50:51;5.40;;;4.30;;
17872;SDS011;36318;42.620;23.338;2022-10-15T02:53:19;4.20;;;3.80;;
17872;SDS011;36318;42.620;23.338;2022-10-15T02:55:45;3.80;;;3.23;;
17872;SDS011;36318;42.620;23.338;2022-10-15T02:58:12;4.30;;;3.80;;
17872;SDS011;36318;42.620;23.338;2022-10-15T03:00:39;4.57;;;3.73;;
17872;SDS011;36318;42.620;23.338;2022-10-15T03:03:06;5.73;;;3.73;;
17872;SDS011;36318;42.620;23.338;2022-10-15T03:05:32;5.27;;;3.57;;
17872;SDS011;36318;42.620;23.338;2022-10-15T03:07:59;4.57;;;3.90;;
17872;SDS011;36318;42.620;23.338;2022-10-15T03:10:27;5.97;;;4.70;;
17872;SDS011;36318;42.620;23.338;2022-10-15T03:12:54;4.43;;;4.03;;
17872;SDS011;36318;42.620;23.338;2022-10-15T03:15:21;4.53;;;4.13;;
17872;SDS011;36318;42.620;23.338;2022-10-15T03:17:48;6.83;;;4.10;;
17872;SDS011;36318;42.620;23.338;2022-10-15T03:20:14;8.00;;;4.63;;
17872;SDS011;36318;42.620;23.338;2022-10-15T03:22:41;6.70;;;4.60;;
17872;SDS011;36318;42.620;23.338;2022-10-15T03:25:08;4.57;;;4.17;;
17872;SDS011;36318;42.620;23.338;2022-10-15T03:27:36;6.03;;;4.90;;
17872;SDS011;36318;42.620;23.338;2022-10-15T03:30:03;7.13;;;4.60;;
17872;SDS011;36318;42.620;23.338;2022-10-15T03:32:30;4.60;;;4.10;;
17872;SDS011;36318;42.620;23.338;2022-10-15T03:34:57;5.47;;;4.53;;
17872;SDS011;36318;42.620;23.338;2022-10-15T03:37:24;7.87;;;4.27;;
17872;SDS011;36318;42.620;23.338;2022-10-15T03:39:51;7.43;;;4.37;;
17872;SDS011;36318;42.620;23.338;2022-10-15T03:42:18;6.30;;;4.60;;
17872;SDS011;36318;42.620;23.338;2022-10-15T03:44:46;7.77;;;4.53;;
17872;SDS011;36318;42.620;23.338;2022-10-15T03:47:13;6.10;;;4.60;;
17872;SDS011;36318;42.620;23.338;2022-10-15T03:49:39;5.17;;;4.47;;
17872;SDS011;36318;42.620;23.338;2022-10-15T03:52:06;6.67;;;4.67;;
17872;SDS011;36318;42.620;23.338;2022-10-15T03:54:33;6.30;;;4.63;;
17872;SDS011;36318;42.620;23.338;2022-10-15T03:57:00;8.13;;;4.43;;
17872;SDS011;36318;42.620;23.338;2022-10-15T03:59:26;7.30;;;4.80;;
17872;SDS011;36318;42.620;23.338;2022-10-15T04:01:54;6.10;;;4.17;;
17872;SDS011;36318;42.620;23.338;2022-10-15T04:04:21;5.33;;;4.30;;
17872;SDS011;36318;42.620;23.338;2022-10-15T04:06:48;5.83;;;4.97;;
17872;SDS011;36318;42.620;23.338;2022-10-15T04:09:15;8.43;;;4.33;;
17872;SDS011;36318;42.620;23.338;2022-10-15T04:11:41;7.20;;;4.73;;
17872;SDS011;36318;42.620;23.338;2022-10-15T04:14:08;5.33;;;4.30;;
17872;SDS011;36318;42.620;23.338;2022-10-15T04:16:35;5.17;;;4.57;;
17872;SDS011;36318;42.620;23.338;2022-10-15T04:19:03;5.83;;;4.97;;
17872;SDS011;36318;42.620;23.338;2022-10-15T04:21:30;6.93;;;5.40;;
17872;SDS011;36318;42.620;23.338;2022-10-15T04:23:57;4.97;;;4.53;;
17872;SDS011;36318;42.620;23.338;2022-10-15T04:26:23;6.10;;;5.17;;
17872;SDS011;36318;42.620;23.338;2022-10-15T04:28:50;6.00;;;5.40;;
17872;SDS011;36318;42.620;23.338;2022-10-15T04:31:17;7.10;;;5.10;;
17872;SDS011;36318;42.620;23.338;2022-10-15T04:33:46;7.10;;;5.47;;
17872;SDS011;36318;42.620;23.338;2022-10-15T04:36:15;6.87;;;5.90;;
17872;SDS011;36318;42.620;23.338;2022-10-15T04:38:42;8.40;;;5.90;;
17872;SDS011;36318;42.620;23.338;2022-10-15T04:41:10;6.60;;;5.07;;
17872;SDS011;36318;42.620;23.338;2022-10-15T04:43:37;6.80;;;5.90;;
17872;SDS011;36318;42.620;23.338;2022-10-15T04:46:05;8.23;;;6.70;;
17872;SDS011;36318;42.620;23.338;2022-10-15T04:48:33;8.97;;;6.13;;
17872;SDS011;36318;42.620;23.338;2022-10-15T04:51:02;9.10;;;5.83;;
17872;SDS011;36318;42.620;23.338;2022-10-15T04:53:31;6.17;;;5.57;;
17872;SDS011;36318;42.620;23.338;2022-10-15T04:55:59;6.97;;;5.57;;
17872;SDS011;36318;42.620;23.338;2022-10-15T04:58:28;7.50;;;5.57;;
17872;SDS011;36318;42.620;23.338;2022-10-15T05:00:58;6.20;;;5.60;;
17872;SDS011;36318;42.620;23.338;2022-10-15T05:03:25;6.90;;;6.17;;
17872;SDS011;36318;42.620;23.338;2022-10-15T05:05:52;13.30;;;5.70;;
17872;SDS011;36318;42.620;23.338;2022-10-15T05:08:19;6.77;;;5.70;;
17872;SDS011;36318;42.620;23.338;2022-10-15T05:10:47;8.13;;;5.90;;
17872;SDS011;36318;42.620;23.338;2022-10-15T05:13:14;8.07;;;6.00;;
17872;SDS011;36318;42.620;23.338;2022-10-15T05:15:41;9.30;;;5.70;;
17872;SDS011;36318;42.620;23.338;2022-10-15T05:18:08;6.43;;;5.70;;
17872;SDS011;36318;42.620;23.338;2022-10-15T05:20:34;7.63;;;5.97;;
17872;SDS011;36318;42.620;23.338;2022-10-15T05:23:01;7.20;;;5.87;;
17872;SDS011;36318;42.620;23.338;2022-10-15T05:25:30;9.53;;;5.53;;
17872;SDS011;36318;42.620;23.338;2022-10-15T05:27:58;8.17;;;6.43;;
17872;SDS011;36318;42.620;23.338;2022-10-15T05:30:25;9.70;;;6.33;;
17872;SDS011;36318;42.620;23.338;2022-10-15T05:32:52;6.63;;;5.83;;
17872;SDS011;36318;42.620;23.338;2022-10-15T05:35:20;7.80;;;6.00;;
17872;SDS011;36318;42.620;23.338;2022-10-15T05:37:47;9.53;;;5.83;;
17872;SDS011;36318;42.620;23.338;2022-10-15T05:40:14;10.53;;;6.87;;
17872;SDS011;36318;42.620;23.338;2022-10-15T05:42:41;7.60;;;6.80;;
17872;SDS011;36318;42.620;23.338;2022-10-15T05:45:10;7.80;;;5.93;;
17872;SDS011;36318;42.620;23.338;2022-10-15T05:47:37;6.77;;;5.97;;
17872;SDS011;36318;42.620;23.338;2022-10-15T05:50:03;7.83;;;5.67;;
17872;SDS011;36318;42.620;23.338;2022-10-15T05:52:31;10.27;;;5.93;;
17872;SDS011;36318;42.620;23.338;2022-10-15T05:54:58;8.10;;;5.90;;
17872;SDS011;36318;42.620;23.338;2022-10-15T05:57:24;6.70;;;5.53;;
17872;SDS011;36318;42.620;23.338;2022-10-15T05:59:51;5.73;;;5.23;;
17872;SDS011;36318;42.620;23.338;2022-10-15T06:02:19;6.73;;;5.23;;
17872;SDS011;36318;42.620;23.338;2022-10-15T06:04:46;11.73;;;5.47;;
17872;SDS011;36318;42.620;23.338;2022-10-15T06:07:13;7.13;;;5.27;;
17872;SDS011;36318;42.620;23.338;2022-10-15T06:09:40;6.53;;;5.13;;
17872;SDS011;36318;42.620;23.338;2022-10-15T06:12:07;6.03;;;5.43;;
17872;SDS011;36318;42.620;23.338;2022-10-15T06:14:34;6.77;;;5.27;;
17872;SDS011;36318;42.620;23.338;2022-10-15T06:17:01;8.07;;;5.40;;
17872;SDS011;36318;42.620;23.338;2022-10-15T06:19:29;8.47;;;5.30;;
17872;SDS011;36318;42.620;23.338;2022-10-15T06:21:56;6.17;;;5.33;;
17872;SDS011;36318;42.620;23.338;2022-10-15T06:24:23;11.03;;;5.27;;
17872;SDS011;36318;42.620;23.338;2022-10-15T06:26:50;9.73;;;5.40;;
17872;SDS011;36318;42.620;23.338;2022-10-15T06:29:16;6.80;;;5.20;;
17872;SDS011;36318;42.620;23.338;2022-10-15T06:31:43;5.77;;;5.00;;
17872;SDS011;36318;42.620;23.338;2022-10-15T06:34:10;8.20;;;5.43;;
17872;SDS011;36318;42.620;23.338;2022-10-15T06:36:38;5.47;;;4.87;;
17872;SDS011;36318;42.620;23.338;2022-10-15T06:39:06;6.20;;;4.67;;
17872;SDS011;36318;42.620;23.338;2022-10-15T06:41:32;8.20;;;5.73;;
17872;SDS011;36318;42.620;23.338;2022-10-15T06:43:59;8.67;;;5.60;;
17872;SDS011;36318;42.620;23.338;2022-10-15T06:46:26;7.80;;;5.00;;
17872;SDS011;36318;42.620;23.338;2022-10-15T06:48:53;7.97;;;4.73;;
17872;SDS011;36318;42.620;23.338;2022-10-15T06:51:20;6.80;;;4.40;;
17872;SDS011;36318;42.620;23.338;2022-10-15T06:53:48;4.47;;;3.97;;
17872;SDS011;36318;42.620;23.338;2022-10-15T06:56:15;6.10;;;4.73;;
17872;SDS011;36318;42.620;23.338;2022-10-15T06:58:41;4.47;;;3.53;;
17872;SDS011;36318;42.620;23.338;2022-10-15T07:01:08;6.63;;;4.27;;
17872;SDS011;36318;42.620;23.338;2022-10-15T07:03:35;5.73;;;4.20;;
17872;SDS011;36318;42.620;23.338;2022-10-15T07:06:03;6.90;;;4.50;;
17872;SDS011;36318;42.620;23.338;2022-10-15T07:08:32;7.77;;;4.37;;
17872;SDS011;36318;42.620;23.338;2022-10-15T07:11:01;4.60;;;4.00;;
17872;SDS011;36318;42.620;23.338;2022-10-15T07:13:28;4.50;;;4.10;;
17872;SDS011;36318;42.620;23.338;2022-10-15T07:15:55;6.83;;;3.80;;
17872;SDS011;36318;42.620;23.338;2022-10-15T07:18:22;4.83;;;4.20;;
17872;SDS011;36318;42.620;23.338;2022-10-15T07:20:49;6.37;;;4.50;;
17872;SDS011;36318;42.620;23.338;2022-10-15T07:23:16;5.43;;;4.40;;
17872;SDS011;36318;42.620;23.338;2022-10-15T07:25:42;5.33;;;4.20;;
17872;SDS011;36318;42.620;23.338;2022-10-15T07:28:11;6.17;;;4.50;;
17872;SDS011;36318;42.620;23.338;2022-10-15T07:30:37;10.47;;;5.10;;
17872;SDS011;36318;42.620;23.338;2022-10-15T07:33:04;5.90;;;4.90;;
17872;SDS011;36318;42.620;23.338;2022-10-15T07:35:31;4.90;;;4.40;;
17872;SDS011;36318;42.620;23.338;2022-10-15T07:37:59;7.93;;;4.37;;
17872;SDS011;36318;42.620;23.338;2022-10-15T07:40:27;4.93;;;4.43;;
17872;SDS011;36318;42.620;23.338;2022-10-15T07:42:54;6.40;;;4.57;;
17872;SDS011;36318;42.620;23.338;2022-10-15T07:45:23;7.93;;;4.43;;
17872;SDS011;36318;42.620;23.338;2022-10-15T07:47:51;9.30;;;5.10;;
17872;SDS011;36318;42.620;23.338;2022-10-15T07:50:19;4.53;;;4.13;;
17872;SDS011;36318;42.620;23.338;2022-10-15T07:52:46;4.90;;;4.03;;
17872;SDS011;36318;42.620;23.338;2022-10-15T07:55:13;4.23;;;3.83;;
17872;SDS011;36318;42.620;23.338;2022-10-15T07:57:40;4.63;;;4.17;;
17872;SDS011;36318;42.620;23.338;2022-10-15T08:00:07;5.70;;;4.23;;
17872;SDS011;36318;42.620;23.338;2022-10-15T08:02:36;5.70;;;4.13;;
17872;SDS011;36318;42.620;23.338;2022-10-15T08:05:03;10.17;;;4.30;;
17872;SDS011;36318;42.620;23.338;2022-10-15T08:07:30;6.23;;;4.27;;
17872;SDS011;36318;42.620;23.338;2022-10-15T08:09:57;5.73;;;4.13;;
17872;SDS011;36318;42.620;23.338;2022-10-15T08:12:24;7.43;;;4.43;;
17872;SDS011;36318;42.620;23.338;2022-10-15T08:14:50;7.93;;;4.33;;
17872;SDS011;36318;42.620;23.338;2022-10-15T08:17:17;6.72;;;4.38;;
17872;SDS011;36318;42.620;23.338;2022-10-15T08:19:45;7.00;;;4.00;;
17872;SDS011;36318;42.620;23.338;2022-10-15T08:22:12;11.40;;;4.50;;
17872;SDS011;36318;42.620;23.338;2022-10-15T08:24:39;5.47;;;4.00;;
17872;SDS011;36318;42.620;23.338;2022-10-15T08:27:06;7.30;;;4.03;;
17872;SDS011;36318;42.620;23.338;2022-10-15T08:29:32;4.63;;;3.92;;
17872;SDS011;36318;42.620;23.338;2022-10-15T08:31:59;5.45;;;4.10;;
17872;SDS011;36318;42.620;23.338;2022-10-15T08:34:26;4.30;;;3.90;;
17872;SDS011;36318;42.620;23.338;2022-10-15T08:36:54;7.32;;;4.18;;
17872;SDS011;36318;42.620;23.338;2022-10-15T08:39:21;6.25;;;3.92;;
17872;SDS011;36318;42.620;23.338;2022-10-15T08:41:48;6.05;;;3.95;;
17872;SDS011;36318;42.620;23.338;2022-10-15T08:44:20;5.32;;;4.18;;
17872;SDS011;36318;42.620;23.338;2022-10-15T08:46:50;6.75;;;5.10;;
17872;SDS011;36318;42.620;23.338;2022-10-15T08:49:25;6.85;;;4.15;;
17872;SDS011;36318;42.620;23.338;2022-10-15T08:52:02;8.52;;;4.80;;
17872;SDS011;36318;42.620;23.338;2022-10-15T08:54:36;8.20;;;4.90;;
17872;SDS011;36318;42.620;23.338;2022-10-15T08:57:06;4.80;;;4.40;;
17872;SDS011;36318;42.620;23.338;2022-10-15T08:59:43;4.57;;;4.15;;
17872;SDS011;36318;42.620;23.338;2022-10-15T09:02:15;5.95;;;3.63;;
17872;SDS011;36318;42.620;23.338;2022-10-15T09:04:46;5.60;;;3.65;;
17872;SDS011;36318;42.620;23.338;2022-10-15T09:07:20;4.35;;;3.95;;
17872;SDS011;36318;42.620;23.338;2022-10-15T09:09:52;4.82;;;3.33;;
17872;SDS011;36318;42.620;23.338;2022-10-15T09:12:30;4.20;;;3.50;;
17872;SDS011;36318;42.620;23.338;2022-10-15T09:15:09;6.05;;;4.20;;
17872;SDS011;36318;42.620;23.338;2022-10-15T09:17:40;4.27;;;3.87;;
17872;SDS011;36318;42.620;23.338;2022-10-15T09:20:12;5.23;;;4.00;;
17872;SDS011;36318;42.620;23.338;2022-10-15T09:22:42;6.33;;;4.20;;
17872;SDS011;36318;42.620;23.338;2022-10-15T09:25:14;4.50;;;4.10;;
17872;SDS011;36318;42.620;23.338;2022-10-15T09:27:44;3.93;;;3.37;;
17872;SDS011;36318;42.620;23.338;2022-10-15T09:30:17;6.77;;;3.67;;
17872;SDS011;36318;42.620;23.338;2022-10-15T09:32:51;4.57;;;3.93;;
17872;SDS011;36318;42.620;23.338;2022-10-15T09:35:24;4.67;;;3.80;;
17872;SDS011;36318;42.620;23.338;2022-10-15T09:37:56;4.60;;;3.70;;
17872;SDS011;36318;42.620;23.338;2022-10-15T09:40:39;5.17;;;4.03;;
17872;SDS011;36318;42.620;23.338;2022-10-15T09:43:18;6.23;;;4.40;;
17872;SDS011;36318;42.620;23.338;2022-10-15T09:45:51;5.90;;;3.87;;
17872;SDS011;36318;42.620;23.338;2022-10-15T09:48:18;5.27;;;3.67;;
17872;SDS011;36318;42.620;23.338;2022-10-15T09:50:48;7.00;;;4.30;;
17872;SDS011;36318;42.620;23.338;2022-10-15T09:53:24;4.97;;;3.87;;
17872;SDS011;36318;42.620;23.338;2022-10-15T09:56:02;5.57;;;3.77;;
17872;SDS011;36318;42.620;23.338;2022-10-15T09:58:38;7.07;;;3.97;;
17872;SDS011;36318;42.620;23.338;2022-10-15T10:01:15;6.07;;;3.47;;
17872;SDS011;36318;42.620;23.338;2022-10-15T10:03:43;7.53;;;4.20;;
17872;SDS011;36318;42.620;23.338;2022-10-15T10:06:13;6.17;;;4.20;;
17872;SDS011;36318;42.620;23.338;2022-10-15T10:08:46;6.10;;;3.70;;
17872;SDS011;36318;42.620;23.338;2022-10-15T10:11:16;3.70;;;3.30;;
17872;SDS011;36318;42.620;23.338;2022-10-15T10:13:44;6.03;;;3.20;;
17872;SDS011;36318;42.620;23.338;2022-10-15T10:16:16;4.03;;;3.60;;
17872;SDS011;36318;42.620;23.338;2022-10-15T10:19:00;4.23;;;3.83;;
17872;SDS011;36318;42.620;23.338;2022-10-15T10:21:30;4.27;;;3.33;;
17872;SDS011;36318;42.620;23.338;2022-10-15T10:26:54;3.87;;;3.57;;
17872;SDS011;36318;42.620;23.338;2022-10-15T10:29:22;4.10;;;3.40;;
17872;SDS011;36318;42.620;23.338;2022-10-15T10:31:50;5.93;;;3.23;;
17872;SDS011;36318;42.620;23.338;2022-10-15T10:34:20;4.37;;;2.97;;
17872;SDS011;36318;42.620;23.338;2022-10-15T10:36:52;4.87;;;3.43;;
17872;SDS011;36318;42.620;23.338;2022-10-15T10:39:20;4.93;;;3.43;;
17872;SDS011;36318;42.620;23.338;2022-10-15T10:41:54;5.33;;;4.00;;
17872;SDS011;36318;42.620;23.338;2022-10-15T10:44:26;4.30;;;3.70;;
17872;SDS011;36318;42.620;23.338;2022-10-15T10:47:02;3.67;;;3.30;;
17872;SDS011;36318;42.620;23.338;2022-10-15T10:49:35;6.83;;;3.73;;
17872;SDS011;36318;42.620;23.338;2022-10-15T10:52:04;4.80;;;3.50;;
17872;SDS011;36318;42.620;23.338;2022-10-15T10:54:31;6.27;;;3.63;;
17872;SDS011;36318;42.620;23.338;2022-10-15T10:57:00;3.97;;;3.57;;
17872;SDS011;36318;42.620;23.338;2022-10-15T10:59:29;10.37;;;3.93;;
17872;SDS011;36318;42.620;23.338;2022-10-15T11:01:59;5.57;;;3.60;;
17872;SDS011;36318;42.620;23.338;2022-10-15T11:04:29;5.40;;;3.67;;
17872;SDS011;36318;42.620;23.338;2022-10-15T11:06:59;5.63;;;3.17;;
17872;SDS011;36318;42.620;23.338;2022-10-15T11:09:31;4.80;;;3.37;;
17872;SDS011;36318;42.620;23.338;2022-10-15T11:12:13;3.77;;;3.37;;
17872;SDS011;36318;42.620;23.338;2022-10-15T11:14:56;5.80;;;3.57;;
17872;SDS011;36318;42.620;23.338;2022-10-15T11:17:39;4.93;;;3.30;;
17872;SDS011;36318;42.620;23.338;2022-10-15T11:20:18;4.03;;;3.03;;
17872;SDS011;36318;42.620;23.338;2022-10-15T11:22:53;6.00;;;3.60;;
17872;SDS011;36318;42.620;23.338;2022-10-15T11:25:30;5.13;;;3.90;;
17872;SDS011;36318;42.620;23.338;2022-10-15T11:28:18;4.60;;;3.70;;
17872;SDS011;36318;42.620;23.338;2022-10-15T11:30:54;6.07;;;3.63;;
17872;SDS011;36318;42.620;23.338;2022-10-15T11:33:34;6.67;;;4.07;;
17872;SDS011;36318;42.620;23.338;2022-10-15T11:36:21;10.90;;;3.23;;
17872;SDS011;36318;42.620;23.338;2022-10-15T11:38:59;4.73;;;3.10;;
17872;SDS011;36318;42.620;23.338;2022-10-15T11:41:42;4.23;;;3.40;;
17872;SDS011;36318;42.620;23.338;2022-10-15T11:44:25;5.43;;;3.10;;
17872;SDS011;36318;42.620;23.338;2022-10-15T11:47:10;3.47;;;2.70;;
17872;SDS011;36318;42.620;23.338;2022-10-15T11:49:49;5.73;;;3.43;;
17872;SDS011;36318;42.620;23.338;2022-10-15T11:52:34;3.77;;;3.03;;
17872;SDS011;36318;42.620;23.338;2022-10-15T11:55:15;3.77;;;3.07;;
17872;SDS011;36318;42.620;23.338;2022-10-15T11:57:44;3.60;;;2.87;;
17872;SDS011;36318;42.620;23.338;2022-10-15T12:00:18;4.47;;;2.83;;
17872;SDS011;36318;42.620;23.338;2022-10-15T12:02:58;4.33;;;3.30;;
17872;SDS011;36318;42.620;23.338;2022-10-15T12:05:31;4.43;;;3.00;;
17872;SDS011;36318;42.620;23.338;2022-10-15T12:08:01;3.97;;;2.83;;
17872;SDS011;36318;42.620;23.338;2022-10-15T12:10:32;5.53;;;2.93;;
17872;SDS011;36318;42.620;23.338;2022-10-15T12:13:07;4.03;;;2.90;;
17872;SDS011;36318;42.620;23.338;2022-10-15T12:15:41;3.47;;;3.17;;
17872;SDS011;36318;42.620;23.338;2022-10-15T12:18:15;7.63;;;3.97;;
17872;SDS011;36318;42.620;23.338;2022-10-15T12:20:48;6.07;;;3.70;;
17872;SDS011;36318;42.620;23.338;2022-10-15T12:23:23;4.13;;;3.00;;
17872;SDS011;36318;42.620;23.338;2022-10-15T12:25:51;4.07;;;2.80;;
17872;SDS011;36318;42.620;23.338;2022-10-15T12:28:20;4.87;;;3.13;;
17872;SDS011;36318;42.620;23.338;2022-10-15T12:30:54;5.50;;;3.77;;
17872;SDS011;36318;42.620;23.338;2022-10-15T12:33:25;6.77;;;4.37;;
17872;SDS011;36318;42.620;23.338;2022-10-15T12:35:58;6.30;;;3.27;;
17872;SDS011;36318;42.620;23.338;2022-10-15T12:38:27;5.70;;;3.20;;
17872;SDS011;36318;42.620;23.338;2022-10-15T12:40:58;5.97;;;3.70;;
17872;SDS011;36318;42.620;23.338;2022-10-15T12:43:28;5.03;;;3.33;;
17872;SDS011;36318;42.620;23.338;2022-10-15T12:45:59;3.33;;;3.00;;
17872;SDS011;36318;42.620;23.338;2022-10-15T12:48:28;4.93;;;3.70;;
17872;SDS011;36318;42.620;23.338;2022-10-15T13:00:28;4.50;;;3.90;;
17872;SDS011;36318;42.620;23.338;2022-10-15T13:05:47;6.00;;;4.30;;
17872;SDS011;36318;42.620;23.338;2022-10-15T13:08:15;5.00;;;3.60;;
17872;SDS011;36318;42.620;23.338;2022-10-15T13:10:49;3.97;;;2.97;;
17872;SDS011;36318;42.620;23.338;2022-10-15T13:13:20;4.43;;;3.33;;
17872;SDS011;36318;42.620;23.338;2022-10-15T13:15:50;4.90;;;3.07;;
17872;SDS011;36318;42.620;23.338;2022-10-15T13:18:22;7.67;;;3.83;;
17872;SDS011;36318;42.620;23.338;2022-10-15T13:20:50;3.80;;;3.40;;
17872;SDS011;36318;42.620;23.338;2022-10-15T13:23:21;3.70;;;3.10;;
17872;SDS011;36318;42.620;23.338;2022-10-15T13:25:52;4.90;;;3.23;;
17872;SDS011;36318;42.620;23.338;2022-10-15T13:28:35;3.30;;;3.00;;
17872;SDS011;36318;42.620;23.338;2022-10-15T13:31:04;4.57;;;3.30;;
17872;SDS011;36318;42.620;23.338;2022-10-15T13:33:34;6.63;;;3.20;;
17872;SDS011;36318;42.620;23.338;2022-10-15T13:36:06;7.93;;;2.93;;
17872;SDS011;36318;42.620;23.338;2022-10-15T13:38:34;4.80;;;3.10;;
17872;SDS011;36318;42.620;23.338;2022-10-15T13:41:04;4.47;;;3.23;;
17872;SDS011;36318;42.620;23.338;2022-10-15T13:43:31;4.27;;;3.20;;
17872;SDS011;36318;42.620;23.338;2022-10-15T13:45:58;5.13;;;3.43;;
17872;SDS011;36318;42.620;23.338;2022-10-15T13:48:27;5.27;;;3.13;;
17872;SDS011;36318;42.620;23.338;2022-10-15T13:50:57;3.30;;;2.93;;
17872;SDS011;36318;42.620;23.338;2022-10-15T13:53:26;3.47;;;2.37;;
17872;SDS011;36318;42.620;23.338;2022-10-15T13:55:55;5.27;;;3.30;;
17872;SDS011;36318;42.620;23.338;2022-10-15T13:58:25;3.40;;;3.00;;
17872;SDS011;36318;42.620;23.338;2022-10-15T14:00:55;3.90;;;3.00;;
17872;SDS011;36318;42.620;23.338;2022-10-15T14:03:24;8.20;;;3.20;;
17872;SDS011;36318;42.620;23.338;2022-10-15T14:05:53;7.00;;;3.37;;
17872;SDS011;36318;42.620;23.338;2022-10-15T14:08:24;4.83;;;3.53;;
17872;SDS011;36318;42.620;23.338;2022-10-15T14:10:53;6.47;;;3.47;;
17872;SDS011;36318;42.620;23.338;2022-10-15T14:13:22;3.47;;;3.00;;
17872;SDS011;36318;42.620;23.338;2022-10-15T14:15:55;7.00;;;3.00;;
17872;SDS011;36318;42.620;23.338;2022-10-15T14:18:27;3.73;;;2.60;;
17872;SDS011;36318;42.620;23.338;2022-10-15T14:20:57;4.13;;;2.70;;
17872;SDS011;36318;42.620;23.338;2022-10-15T14:23:26;3.87;;;3.10;;
17872;SDS011;36318;42.620;23.338;2022-10-15T14:25:55;3.83;;;2.73;;
17872;SDS011;36318;42.620;23.338;2022-10-15T14:28:25;4.47;;;3.30;;
17872;SDS011;36318;42.620;23.338;2022-10-15T14:30:54;5.63;;;3.00;;
17872;SDS011;36318;42.620;23.338;2022-10-15T14:33:28;4.00;;;3.17;;
17872;SDS011;36318;42.620;23.338;2022-10-15T14:36:07;5.63;;;3.47;;
17872;SDS011;36318;42.620;23.338;2022-10-15T14:38:38;6.47;;;3.20;;
17872;SDS011;36318;42.620;23.338;2022-10-15T14:41:17;5.77;;;3.47;;
17872;SDS011;36318;42.620;23.338;2022-10-15T14:43:59;6.10;;;3.17;;
17872;SDS011;36318;42.620;23.338;2022-10-15T14:46:32;4.63;;;2.83;;
17872;SDS011;36318;42.620;23.338;2022-10-15T14:49:02;4.23;;;2.40;;
17872;SDS011;36318;42.620;23.338;2022-10-15T14:51:29;6.40;;;3.00;;
17872;SDS011;36318;42.620;23.338;2022-10-15T14:53:58;9.87;;;3.77;;
17872;SDS011;36318;42.620;23.338;2022-10-15T14:56:28;3.97;;;3.40;;
17872;SDS011;36318;42.620;23.338;2022-10-15T14:58:57;7.70;;;4.23;;
17872;SDS011;36318;42.620;23.338;2022-10-15T15:01:25;6.60;;;3.70;;
17872;SDS011;36318;42.620;23.338;2022-10-15T15:03:54;4.03;;;3.07;;
17872;SDS011;36318;42.620;23.338;2022-10-15T15:06:21;5.13;;;3.13;;
17872;SDS011;36318;42.620;23.338;2022-10-15T15:08:48;6.60;;;3.83;;